sensor_id;sensor_type;location;lat;lon;timestamp;P1;durP1;ratioP1;P2;durP2;ratioP2
4198;SDS011;2113;50.946;14.610;2023-07-29T07:54:53;5.80;;;1.70;;
4198;SDS011;2113;50.946;14.610;2023-07-29T09:48:40;2.75;;;2.10;;
4198;SDS011;2113;50.946;14.610;2023-07-29T09:51:10;4.13;;;2.83;;
4198;SDS011;2113;50.946;14.610;2023-07-29T09:53:40;18.63;;;3.30;;
4198;SDS011;2113;50.946;14.610;2023-07-29T09:56:12;3.65;;;2.83;;
4198;SDS011;2113;50.946;14.610;2023-07-29T09:58:42;3.00;;;2.20;;
4198;SDS011;2113;50.946;14.610;2023-07-29T10:01:12;2.90;;;2.25;;
4198;SDS011;2113;50.946;14.610;2023-07-29T10:03:43;3.30;;;2.47;;
4198;SDS011;2113;50.946;14.610;2023-07-29T10:06:12;3.95;;;2.65;;
4198;SDS011;2113;50.946;14.610;2023-07-29T10:08:42;3.60;;;2.45;;
4198;SDS011;2113;50.946;14.610;2023-07-29T10:11:11;3.42;;;2.50;;
4198;SDS011;2113;50.946;14.610;2023-07-29T10:13:39;4.95;;;2.85;;
4198;SDS011;2113;50.946;14.610;2023-07-29T14:24:01;2.00;;;0.80;;
4198;SDS011;2113;50.946;14.610;2023-07-29T14:26:30;2.80;;;1.10;;
4198;SDS011;2113;50.946;14.610;2023-07-29T14:28:58;4.90;;;1.40;;
4198;SDS011;2113;50.946;14.610;2023-07-29T14:31:26;3.72;;;1.23;;
4198;SDS011;2113;50.946;14.610;2023-07-29T14:33:54;3.00;;;1.20;;
4198;SDS011;2113;50.946;14.610;2023-07-29T14:36:22;2.10;;;1.02;;
4198;SDS011;2113;50.946;14.610;2023-07-29T14:38:54;2.80;;;1.05;;
4198;SDS011;2113;50.946;14.610;2023-07-29T14:41:23;2.42;;;1.00;;
4198;SDS011;2113;50.946;14.610;2023-07-29T14:43:52;4.90;;;1.15;;
4198;SDS011;2113;50.946;14.610;2023-07-29T14:46:20;2.40;;;0.93;;
4198;SDS011;2113;50.946;14.610;2023-07-29T14:48:48;2.35;;;1.25;;
4198;SDS011;2113;50.946;14.610;2023-07-29T14:51:16;3.60;;;1.45;;
4198;SDS011;2113;50.946;14.610;2023-07-29T14:53:45;2.63;;;1.75;;
4198;SDS011;2113;50.946;14.610;2023-07-29T14:56:13;4.05;;;1.50;;
4198;SDS011;2113;50.946;14.610;2023-07-29T14:58:45;2.45;;;1.35;;
4198;SDS011;2113;50.946;14.610;2023-07-29T15:01:16;2.60;;;1.50;;
4198;SDS011;2113;50.946;14.610;2023-07-29T15:03:44;4.80;;;1.48;;
4198;SDS011;2113;50.946;14.610;2023-07-29T15:06:12;3.22;;;2.00;;
4198;SDS011;2113;50.946;14.610;2023-07-29T15:08:41;4.18;;;2.08;;
4198;SDS011;2113;50.946;14.610;2023-07-29T15:11:09;10.25;;;3.40;;
4198;SDS011;2113;50.946;14.610;2023-07-29T15:13:37;5.45;;;2.20;;
4198;SDS011;2113;50.946;14.610;2023-07-29T15:16:07;3.08;;;1.80;;
4198;SDS011;2113;50.946;14.610;2023-07-29T15:18:35;3.15;;;2.00;;
4198;SDS011;2113;50.946;14.610;2023-07-29T15:21:03;3.53;;;1.83;;
4198;SDS011;2113;50.946;14.610;2023-07-29T15:23:31;3.95;;;1.98;;
4198;SDS011;2113;50.946;14.610;2023-07-29T15:26:00;2.97;;;1.70;;
4198;SDS011;2113;50.946;14.610;2023-07-29T15:28:28;2.50;;;1.42;;
4198;SDS011;2113;50.946;14.610;2023-07-29T15:30:56;3.40;;;1.77;;
4198;SDS011;2113;50.946;14.610;2023-07-29T15:33:26;2.88;;;1.73;;
4198;SDS011;2113;50.946;14.610;2023-07-29T15:35:54;3.85;;;2.13;;
4198;SDS011;2113;50.946;14.610;2023-07-29T15:38:22;3.20;;;1.90;;
4198;SDS011;2113;50.946;14.610;2023-07-29T15:40:50;3.00;;;1.90;;
4198;SDS011;2113;50.946;14.610;2023-07-29T15:43:18;4.05;;;1.85;;
4198;SDS011;2113;50.946;14.610;2023-07-29T15:45:46;3.10;;;2.05;;
4198;SDS011;2113;50.946;14.610;2023-07-29T15:48:14;2.88;;;1.75;;
4198;SDS011;2113;50.946;14.610;2023-07-29T15:50:44;5.40;;;2.50;;
4198;SDS011;2113;50.946;14.610;2023-07-29T15:53:12;2.70;;;1.85;;
4198;SDS011;2113;50.946;14.610;2023-07-29T15:55:40;2.88;;;1.60;;
4198;SDS011;2113;50.946;14.610;2023-07-29T15:58:08;3.25;;;2.00;;
4198;SDS011;2113;50.946;14.610;2023-07-29T16:00:37;3.33;;;2.03;;
4198;SDS011;2113;50.946;14.610;2023-07-29T16:03:05;4.55;;;2.20;;
4198;SDS011;2113;50.946;14.610;2023-07-29T16:05:34;5.30;;;2.25;;
4198;SDS011;2113;50.946;14.610;2023-07-29T16:08:03;3.30;;;2.10;;
4198;SDS011;2113;50.946;14.610;2023-07-29T16:10:31;3.08;;;1.70;;
4198;SDS011;2113;50.946;14.610;2023-07-29T16:13:00;4.00;;;2.50;;
4198;SDS011;2113;50.946;14.610;2023-07-29T16:15:29;3.30;;;2.33;;
4198;SDS011;2113;50.946;14.610;2023-07-29T16:17:57;3.20;;;2.40;;
4198;SDS011;2113;50.946;14.610;2023-07-29T16:20:28;3.05;;;1.90;;
4198;SDS011;2113;50.946;14.610;2023-07-29T16:22:56;4.72;;;2.40;;
4198;SDS011;2113;50.946;14.610;2023-07-29T16:25:25;2.85;;;1.80;;
4198;SDS011;2113;50.946;14.610;2023-07-29T16:27:54;6.15;;;1.65;;
4198;SDS011;2113;50.946;14.610;2023-07-29T16:30:23;3.45;;;1.75;;
4198;SDS011;2113;50.946;14.610;2023-07-29T16:32:52;3.45;;;1.98;;
4198;SDS011;2113;50.946;14.610;2023-07-29T16:35:21;3.88;;;1.70;;
4198;SDS011;2113;50.946;14.610;2023-07-29T16:37:49;3.55;;;1.60;;
4198;SDS011;2113;50.946;14.610;2023-07-29T16:40:18;3.03;;;2.20;;
4198;SDS011;2113;50.946;14.610;2023-07-29T16:42:47;3.33;;;1.50;;
4198;SDS011;2113;50.946;14.610;2023-07-29T16:45:15;3.22;;;2.00;;
4198;SDS011;2113;50.946;14.610;2023-07-29T16:47:43;5.85;;;2.40;;
4198;SDS011;2113;50.946;14.610;2023-07-29T16:50:12;3.22;;;1.77;;
4198;SDS011;2113;50.946;14.610;2023-07-29T16:52:40;3.40;;;2.05;;
4198;SDS011;2113;50.946;14.610;2023-07-29T16:55:08;2.92;;;1.55;;
4198;SDS011;2113;50.946;14.610;2023-07-29T16:57:37;4.75;;;2.50;;
4198;SDS011;2113;50.946;14.610;2023-07-29T17:00:07;3.65;;;1.95;;
4198;SDS011;2113;50.946;14.610;2023-07-29T17:02:36;2.45;;;1.63;;
4198;SDS011;2113;50.946;14.610;2023-07-29T17:05:05;2.90;;;1.80;;
4198;SDS011;2113;50.946;14.610;2023-07-29T17:07:33;3.58;;;2.30;;
4198;SDS011;2113;50.946;14.610;2023-07-29T17:10:02;4.15;;;1.63;;
4198;SDS011;2113;50.946;14.610;2023-07-29T17:12:30;4.15;;;2.10;;
4198;SDS011;2113;50.946;14.610;2023-07-29T17:14:58;3.20;;;1.83;;
4198;SDS011;2113;50.946;14.610;2023-07-29T17:17:31;2.55;;;1.55;;
4198;SDS011;2113;50.946;14.610;2023-07-29T17:19:59;3.35;;;1.83;;
4198;SDS011;2113;50.946;14.610;2023-07-29T17:22:28;3.72;;;2.30;;
4198;SDS011;2113;50.946;14.610;2023-07-29T17:24:58;4.85;;;2.03;;
4198;SDS011;2113;50.946;14.610;2023-07-29T17:27:26;3.35;;;2.50;;
4198;SDS011;2113;50.946;14.610;2023-07-29T17:29:54;4.32;;;2.30;;
4198;SDS011;2113;50.946;14.610;2023-07-29T17:32:22;3.88;;;2.67;;
4198;SDS011;2113;50.946;14.610;2023-07-29T17:34:51;4.25;;;2.30;;
4198;SDS011;2113;50.946;14.610;2023-07-29T17:37:20;3.45;;;1.98;;
4198;SDS011;2113;50.946;14.610;2023-07-29T17:39:49;4.75;;;1.33;;
4198;SDS011;2113;50.946;14.610;2023-07-29T17:42:17;5.78;;;1.35;;
4198;SDS011;2113;50.946;14.610;2023-07-29T17:44:45;3.83;;;1.25;;
4198;SDS011;2113;50.946;14.610;2023-07-29T17:47:13;2.75;;;1.35;;
4198;SDS011;2113;50.946;14.610;2023-07-29T17:49:41;4.70;;;0.88;;
4198;SDS011;2113;50.946;14.610;2023-07-29T17:52:11;3.35;;;1.15;;
4198;SDS011;2113;50.946;14.610;2023-07-29T17:54:39;4.10;;;1.13;;
4198;SDS011;2113;50.946;14.610;2023-07-29T17:57:07;4.70;;;1.77;;
4198;SDS011;2113;50.946;14.610;2023-07-29T17:59:36;7.57;;;1.60;;
4198;SDS011;2113;50.946;14.610;2023-07-29T18:02:05;5.85;;;1.60;;
4198;SDS011;2113;50.946;14.610;2023-07-29T18:04:33;3.30;;;1.98;;
4198;SDS011;2113;50.946;14.610;2023-07-29T18:07:01;4.13;;;2.08;;
4198;SDS011;2113;50.946;14.610;2023-07-29T18:09:32;4.60;;;1.70;;
4198;SDS011;2113;50.946;14.610;2023-07-29T18:12:00;4.03;;;1.75;;
4198;SDS011;2113;50.946;14.610;2023-07-29T18:14:28;3.10;;;1.55;;
4198;SDS011;2113;50.946;14.610;2023-07-29T18:16:59;4.30;;;1.83;;
4198;SDS011;2113;50.946;14.610;2023-07-29T18:19:32;7.88;;;3.25;;
4198;SDS011;2113;50.946;14.610;2023-07-29T18:22:01;3.65;;;2.15;;
4198;SDS011;2113;50.946;14.610;2023-07-29T18:24:29;6.82;;;2.00;;
4198;SDS011;2113;50.946;14.610;2023-07-29T18:26:58;4.18;;;2.00;;
4198;SDS011;2113;50.946;14.610;2023-07-29T18:29:27;4.85;;;1.75;;
4198;SDS011;2113;50.946;14.610;2023-07-29T18:31:55;6.25;;;1.95;;
4198;SDS011;2113;50.946;14.610;2023-07-29T18:34:23;8.13;;;2.92;;
4198;SDS011;2113;50.946;14.610;2023-07-29T18:36:51;4.85;;;2.50;;
4198;SDS011;2113;50.946;14.610;2023-07-29T18:39:20;6.32;;;2.33;;
4198;SDS011;2113;50.946;14.610;2023-07-29T18:41:48;6.32;;;3.08;;
4198;SDS011;2113;50.946;14.610;2023-07-29T18:44:17;5.43;;;2.70;;
4198;SDS011;2113;50.946;14.610;2023-07-29T18:46:46;6.05;;;3.28;;
4198;SDS011;2113;50.946;14.610;2023-07-29T18:49:16;4.30;;;2.83;;
4198;SDS011;2113;50.946;14.610;2023-07-29T18:51:44;5.97;;;2.60;;
4198;SDS011;2113;50.946;14.610;2023-07-29T18:54:12;6.50;;;2.97;;
4198;SDS011;2113;50.946;14.610;2023-07-29T18:56:40;4.18;;;2.63;;
4198;SDS011;2113;50.946;14.610;2023-07-29T18:59:09;5.75;;;2.70;;
4198;SDS011;2113;50.946;14.610;2023-07-29T19:01:38;6.15;;;2.35;;
4198;SDS011;2113;50.946;14.610;2023-07-29T19:04:06;4.82;;;2.80;;
4198;SDS011;2113;50.946;14.610;2023-07-29T19:06:36;4.18;;;2.10;;
4198;SDS011;2113;50.946;14.610;2023-07-29T19:09:04;4.00;;;2.42;;
4198;SDS011;2113;50.946;14.610;2023-07-29T19:11:33;4.30;;;2.58;;
4198;SDS011;2113;50.946;14.610;2023-07-29T19:14:01;14.80;;;3.15;;
4198;SDS011;2113;50.946;14.610;2023-07-29T19:16:29;4.32;;;2.60;;
4198;SDS011;2113;50.946;14.610;2023-07-29T19:18:59;4.68;;;2.70;;
4198;SDS011;2113;50.946;14.610;2023-07-29T19:21:27;5.00;;;2.53;;
4198;SDS011;2113;50.946;14.610;2023-07-29T19:23:55;6.10;;;2.80;;
4198;SDS011;2113;50.946;14.610;2023-07-29T19:26:23;4.65;;;3.00;;
4198;SDS011;2113;50.946;14.610;2023-07-29T19:28:51;4.30;;;2.95;;
4198;SDS011;2113;50.946;14.610;2023-07-29T19:31:20;4.78;;;2.85;;
4198;SDS011;2113;50.946;14.610;2023-07-29T19:33:48;5.68;;;2.97;;
4198;SDS011;2113;50.946;14.610;2023-07-29T19:36:19;4.43;;;2.72;;
4198;SDS011;2113;50.946;14.610;2023-07-29T19:38:48;7.93;;;2.80;;
4198;SDS011;2113;50.946;14.610;2023-07-29T19:41:18;5.90;;;3.30;;
4198;SDS011;2113;50.946;14.610;2023-07-29T19:43:46;5.18;;;2.97;;
4198;SDS011;2113;50.946;14.610;2023-07-29T19:46:17;5.55;;;3.42;;
4198;SDS011;2113;50.946;14.610;2023-07-29T19:49:04;5.15;;;3.55;;
4198;SDS011;2113;50.946;14.610;2023-07-29T19:51:34;9.73;;;4.40;;
4198;SDS011;2113;50.946;14.610;2023-07-29T19:54:02;9.50;;;3.15;;
4198;SDS011;2113;50.946;14.610;2023-07-29T19:56:31;7.93;;;5.30;;
4198;SDS011;2113;50.946;14.610;2023-07-29T19:58:59;6.22;;;3.72;;
4198;SDS011;2113;50.946;14.610;2023-07-29T20:01:27;5.32;;;3.40;;
4198;SDS011;2113;50.946;14.610;2023-07-29T20:03:55;7.28;;;3.53;;
4198;SDS011;2113;50.946;14.610;2023-07-29T20:06:23;5.15;;;3.50;;
4198;SDS011;2113;50.946;14.610;2023-07-29T20:08:53;4.95;;;3.20;;
4198;SDS011;2113;50.946;14.610;2023-07-29T20:11:21;10.77;;;4.80;;
4198;SDS011;2113;50.946;14.610;2023-07-29T20:13:49;4.95;;;2.95;;
4198;SDS011;2113;50.946;14.610;2023-07-29T20:16:17;7.38;;;3.20;;
4198;SDS011;2113;50.946;14.610;2023-07-29T20:18:46;5.60;;;2.67;;
4198;SDS011;2113;50.946;14.610;2023-07-29T20:21:14;4.80;;;3.20;;
4198;SDS011;2113;50.946;14.610;2023-07-29T23:24:50;7.88;;;3.05;;
4198;SDS011;2113;50.946;14.610;2023-07-29T23:27:19;10.60;;;2.78;;
4198;SDS011;2113;50.946;14.610;2023-07-29T23:29:47;5.35;;;2.67;;
4198;SDS011;2113;50.946;14.610;2023-07-29T23:32:15;4.75;;;2.40;;
4198;SDS011;2113;50.946;14.610;2023-07-29T23:34:44;9.20;;;3.13;;
4198;SDS011;2113;50.946;14.610;2023-07-29T23:37:12;13.73;;;3.83;;
4198;SDS011;2113;50.946;14.610;2023-07-29T23:39:41;12.70;;;3.60;;
4198;SDS011;2113;50.946;14.610;2023-07-29T23:42:10;18.10;;;3.03;;
4198;SDS011;2113;50.946;14.610;2023-07-29T23:44:38;17.52;;;3.95;;
4198;SDS011;2113;50.946;14.610;2023-07-29T23:47:06;16.02;;;3.05;;
4198;SDS011;2113;50.946;14.610;2023-07-29T23:49:35;11.40;;;3.22;;
4198;SDS011;2113;50.946;14.610;2023-07-29T23:52:04;16.38;;;5.57;;
4198;SDS011;2113;50.946;14.610;2023-07-29T23:54:32;14.85;;;4.15;;
4198;SDS011;2113;50.946;14.610;2023-07-29T23:57:00;14.23;;;3.42;;
4198;SDS011;2113;50.946;14.610;2023-07-29T23:59:31;19.05;;;4.85;;
